Rechercher aéroport 
image banner adimage banner adimage banner ad
image banner ad

CN16 - Mercy Hospital Of Folsom

Situé à Folsom, United States

ICAO - CN16, IATA -

Données fournies par Airmate  

Information générale

Coordonnées: N38°40'15" W121°8'34"
Élévation : 335 feet MSL.
 
Voir autres Aéroports à California

Données opérationnelles

Special qualification required
Heure actuelle UTC:
Heure actuelle locale:
Météo à : KMHR - Sacramento Mather ( 19 km )
METAR: KMHR 292148Z 27007KT 10SM SKC 38/12 A2981
TAF: KMHR 291812Z 2918/3018 15004KT P6SM BKN200 FM292000 25006KT P6SM SCT200 FM300100 24010KT P6SM SCT250 FM301100 15005KT P6SM BKN150
Voir NOTAMs / SUP AIP / TFR affectant cet aéroport [VIEW]
Fréquences de communication: [VIEW]

Pistes:

Coordonnées de l'aéroport

Adresse: Folsom United States

Vue satellite de CN16